createdAt,value
2017-10-30T00:01:56.603Z,6.13
2017-10-30T00:04:26.143Z,6.27
2017-10-30T00:06:53.649Z,4.47
2017-10-30T00:09:21.977Z,5.10
2017-10-30T00:11:49.422Z,5.30
2017-10-30T00:14:16.983Z,4.57
2017-10-30T00:16:45.258Z,5.40
2017-10-30T00:19:12.780Z,6.00
2017-10-30T00:21:40.350Z,6.00
2017-10-30T00:24:08.595Z,5.20
2017-10-30T00:26:36.059Z,5.27
2017-10-30T00:29:03.609Z,5.70
2017-10-30T00:31:31.088Z,5.83
2017-10-30T00:33:58.555Z,4.83
2017-10-30T00:36:26.101Z,5.33
2017-10-30T00:38:53.567Z,5.43
2017-10-30T00:41:21.800Z,4.93
2017-10-30T00:43:49.377Z,5.43
2017-10-30T00:46:16.947Z,5.33
2017-10-30T00:48:44.415Z,4.73
2017-10-30T00:51:12.778Z,6.40
2017-10-30T00:53:40.249Z,5.53
2017-10-30T00:56:07.788Z,6.00
2017-10-30T00:58:36.116Z,5.30
2017-10-30T01:01:03.581Z,5.30
2017-10-30T01:03:31.046Z,8.20
2017-10-30T01:05:59.367Z,6.00
2017-10-30T01:08:26.845Z,5.13
2017-10-30T01:10:55.069Z,5.10
2017-10-30T01:13:22.626Z,5.50
2017-10-30T01:15:50.098Z,7.00
2017-10-30T01:18:18.344Z,6.10
2017-10-30T01:20:45.904Z,5.60
2017-10-30T01:23:13.370Z,6.50
2017-10-30T01:25:41.609Z,6.03
2017-10-30T01:28:09.174Z,5.23
2017-10-30T01:30:36.632Z,6.10
2017-10-30T01:33:04.877Z,8.17
2017-10-30T01:35:32.436Z,6.80
2017-10-30T01:38:00.677Z,5.83
2017-10-30T01:40:28.130Z,7.30
2017-10-30T01:42:55.701Z,6.47
2017-10-30T01:45:23.939Z,7.07
2017-10-30T01:47:51.412Z,6.43
2017-10-30T01:50:18.970Z,6.30
2017-10-30T01:52:46.431Z,6.00
2017-10-30T01:55:13.900Z,5.80
2017-10-30T01:57:42.223Z,6.20
2017-10-30T02:00:09.718Z,7.87
2017-10-30T02:02:38.024Z,7.33
2017-10-30T02:05:05.579Z,6.53
2017-10-30T02:07:33.035Z,7.67
2017-10-30T02:10:01.247Z,7.07
2017-10-30T02:12:29.169Z,7.07
2017-10-30T02:14:57.417Z,6.80
2017-10-30T02:17:25.653Z,6.13
2017-10-30T02:19:53.105Z,7.00
2017-10-30T02:22:21.366Z,7.00
2017-10-30T02:24:48.817Z,7.50
2017-10-30T02:27:16.404Z,6.80
2017-10-30T02:29:43.870Z,6.60
2017-10-30T02:32:11.336Z,6.90
2017-10-30T02:34:39.599Z,7.07
2017-10-30T02:37:07.092Z,7.27
2017-10-30T02:39:35.339Z,7.07
2017-10-30T02:42:02.798Z,8.40
2017-10-30T02:44:31.056Z,7.60
2017-10-30T02:46:58.521Z,6.63
2017-10-30T02:49:26.012Z,6.87
2017-10-30T02:51:54.265Z,7.20
2017-10-30T02:54:21.736Z,6.83
2017-10-30T02:56:49.221Z,6.20
2017-10-30T02:59:16.736Z,6.53
2017-10-30T03:01:44.981Z,7.70
2017-10-30T03:04:12.444Z,6.23
2017-10-30T03:06:40.694Z,6.43
2017-10-30T03:09:08.160Z,7.23
2017-10-30T03:11:35.653Z,7.27
2017-10-30T03:14:03.127Z,8.00
2017-10-30T03:16:30.594Z,6.53
2017-10-30T03:18:58.618Z,6.60
2017-10-30T03:21:26.226Z,6.80
2017-10-30T03:23:53.718Z,7.47
2017-10-30T03:26:21.957Z,5.80
2017-10-30T03:28:49.431Z,7.30
2017-10-30T03:31:16.910Z,7.03
2017-10-30T03:33:44.371Z,6.90
2017-10-30T03:36:12.616Z,6.07
2017-10-30T03:38:40.076Z,6.93
2017-10-30T03:41:07.618Z,6.30
2017-10-30T03:43:35.143Z,6.27
2017-10-30T03:46:02.600Z,6.20
2017-10-30T03:48:30.076Z,6.83
2017-10-30T03:50:58.295Z,7.80
2017-10-30T03:53:25.753Z,6.57
2017-10-30T03:55:53.221Z,6.70
2017-10-30T03:58:20.694Z,6.03
2017-10-30T04:00:48.167Z,6.73
2017-10-30T04:03:15.677Z,7.27
2017-10-30T04:05:43.898Z,8.30
2017-10-30T04:08:11.395Z,6.63
2017-10-30T04:10:38.898Z,6.27
2017-10-30T04:13:06.369Z,6.33
2017-10-30T04:15:33.914Z,6.03
2017-10-30T04:18:01.380Z,6.30
2017-10-30T04:20:28.855Z,5.90
2017-10-30T04:22:56.311Z,6.53
2017-10-30T04:25:23.806Z,6.77
2017-10-30T04:27:51.290Z,5.83
2017-10-30T04:30:18.778Z,7.50
2017-10-30T04:32:46.325Z,7.23
2017-10-30T04:35:14.565Z,6.57
2017-10-30T04:37:42.052Z,6.30
2017-10-30T04:40:09.511Z,6.27
2017-10-30T04:42:37.088Z,6.03
2017-10-30T04:45:05.316Z,6.40
2017-10-30T04:47:32.783Z,6.47
2017-10-30T04:50:00.260Z,7.77
2017-10-30T04:52:27.725Z,6.70
2017-10-30T04:54:55.960Z,6.67
2017-10-30T04:57:23.466Z,7.80
2017-10-30T04:59:50.959Z,6.33
2017-10-30T05:02:18.414Z,6.47
2017-10-30T05:04:45.892Z,6.30
2017-10-30T05:07:13.367Z,7.70
2017-10-30T05:09:40.810Z,6.97
2017-10-30T05:12:08.279Z,9.50
2017-10-30T05:14:35.754Z,6.73
2017-10-30T05:17:03.235Z,6.67
2017-10-30T05:19:30.686Z,6.40
2017-10-30T05:21:58.169Z,6.87
2017-10-30T05:24:25.661Z,6.20
2017-10-30T05:26:53.129Z,6.70
2017-10-30T05:29:20.604Z,6.27
2017-10-30T05:31:48.834Z,7.03
2017-10-30T05:34:16.296Z,6.27
2017-10-30T05:36:43.760Z,8.37
2017-10-30T05:39:11.330Z,7.50
2017-10-30T05:41:38.833Z,6.80
2017-10-30T05:44:07.054Z,7.37
2017-10-30T05:46:34.563Z,7.27
2017-10-30T05:49:02.046Z,7.80
2017-10-30T05:51:30.365Z,7.07
2017-10-30T05:53:57.825Z,7.67
2017-10-30T05:56:26.086Z,7.10
2017-10-30T05:58:53.552Z,6.70
2017-10-30T06:01:21.213Z,6.40
2017-10-30T06:03:48.710Z,6.97
2017-10-30T06:06:16.191Z,8.07
2017-10-30T06:08:43.655Z,6.50
2017-10-30T06:11:11.159Z,6.43
2017-10-30T06:13:38.656Z,7.70
2017-10-30T06:16:06.111Z,6.57
2017-10-30T06:18:33.688Z,6.30
2017-10-30T06:21:07.716Z,5.93
2017-10-30T06:23:35.256Z,5.97
2017-10-30T06:26:02.763Z,6.23
2017-10-30T06:28:30.247Z,6.50
2017-10-30T06:30:57.732Z,6.47
2017-10-30T06:33:25.173Z,8.00
2017-10-30T06:35:53.600Z,5.60
2017-10-30T06:38:21.053Z,6.40
2017-10-30T06:40:49.300Z,6.90
2017-10-30T06:43:16.784Z,6.80
2017-10-30T06:45:44.242Z,6.80
2017-10-30T06:48:12.028Z,6.10
2017-10-30T06:50:39.522Z,6.00
2017-10-30T06:53:06.988Z,7.00
2017-10-30T06:55:34.492Z,7.43
2017-10-30T06:58:01.966Z,7.10
2017-10-30T07:00:29.564Z,5.97
2017-10-30T07:02:57.955Z,6.70
2017-10-30T07:05:25.488Z,6.73
2017-10-30T07:07:53.737Z,6.63
2017-10-30T07:10:21.206Z,7.00
2017-10-30T07:12:48.689Z,6.43
2017-10-30T07:15:16.162Z,6.70
2017-10-30T07:17:43.757Z,6.80
2017-10-30T07:20:11.338Z,7.13
2017-10-30T07:22:38.823Z,7.27
2017-10-30T07:25:06.331Z,6.80
2017-10-30T07:27:33.910Z,7.80
2017-10-30T07:30:01.438Z,8.00
2017-10-30T07:32:28.905Z,6.70
2017-10-30T07:34:56.401Z,8.57
2017-10-30T07:37:23.911Z,7.80
2017-10-30T07:39:52.153Z,7.57
2017-10-30T07:42:19.623Z,7.60
2017-10-30T07:44:47.242Z,5.90
2017-10-30T07:47:14.707Z,6.83
2017-10-30T07:49:42.311Z,7.70
2017-10-30T07:52:09.806Z,6.77
2017-10-30T07:54:37.299Z,6.50
2017-10-30T07:57:04.782Z,6.60
2017-10-30T07:59:32.267Z,7.40
2017-10-30T08:01:59.782Z,6.07
2017-10-30T08:04:27.259Z,6.17
2017-10-30T08:06:55.565Z,6.23
2017-10-30T08:09:23.030Z,6.70
2017-10-30T08:11:50.492Z,6.00
2017-10-30T08:14:17.996Z,7.07
2017-10-30T08:16:45.458Z,5.90
2017-10-30T08:19:12.968Z,6.20
2017-10-30T08:21:40.626Z,6.40
2017-10-30T08:24:08.177Z,7.13
2017-10-30T08:26:36.485Z,7.20
2017-10-30T08:29:03.948Z,5.80
2017-10-30T08:31:32.198Z,6.50
2017-10-30T08:33:59.769Z,5.77
2017-10-30T08:36:27.242Z,6.47
2017-10-30T08:38:54.724Z,6.33
2017-10-30T08:41:22.954Z,7.13
2017-10-30T08:43:50.466Z,6.70
2017-10-30T08:46:18.094Z,6.07
2017-10-30T08:48:45.574Z,6.00
2017-10-30T08:51:13.810Z,5.80
2017-10-30T08:53:41.449Z,7.47
2017-10-30T08:56:09.690Z,6.17
2017-10-30T08:58:37.175Z,5.70
2017-10-30T09:01:04.704Z,5.63
2017-10-30T09:03:32.184Z,6.10
2017-10-30T09:05:59.700Z,5.70
2017-10-30T09:08:27.242Z,6.47
2017-10-30T09:10:54.776Z,6.40
2017-10-30T09:13:22.289Z,6.80
2017-10-30T09:15:49.771Z,5.50
2017-10-30T09:18:17.331Z,5.27
2017-10-30T09:20:45.587Z,6.40
2017-10-30T09:23:13.058Z,7.20
2017-10-30T09:25:40.515Z,5.20
2017-10-30T09:28:08.006Z,6.03
2017-10-30T09:30:35.760Z,6.20
2017-10-30T09:33:04.019Z,6.50
2017-10-30T09:35:31.523Z,7.17
2017-10-30T09:37:59.930Z,5.90
2017-10-30T09:40:27.394Z,7.63
2017-10-30T09:42:54.871Z,5.80
2017-10-30T09:45:22.383Z,6.93
2017-10-30T09:47:49.849Z,5.70
2017-10-30T09:50:17.321Z,5.83
2017-10-30T09:52:45.537Z,6.50
2017-10-30T09:55:13.053Z,6.33
2017-10-30T09:57:41.276Z,6.40
2017-10-30T10:00:08.766Z,5.43
2017-10-30T10:02:36.265Z,5.30
2017-10-30T10:05:03.767Z,4.90
2017-10-30T10:07:31.257Z,5.63
2017-10-30T10:09:58.769Z,4.20
2017-10-30T10:12:26.252Z,5.90
2017-10-30T10:14:53.796Z,5.90
2017-10-30T10:17:21.282Z,5.17
2017-10-30T10:19:48.813Z,5.70
2017-10-30T10:22:16.298Z,5.43
2017-10-30T10:24:44.549Z,5.20
2017-10-30T10:27:12.190Z,5.03
2017-10-30T10:29:40.491Z,5.30
2017-10-30T10:32:08.052Z,5.60
2017-10-30T10:34:35.565Z,5.17
2017-10-30T10:37:03.830Z,4.83
2017-10-30T10:39:31.288Z,4.30
2017-10-30T10:41:59.530Z,5.17
2017-10-30T10:44:27.087Z,4.67
2017-10-30T10:46:54.597Z,4.73
2017-10-30T10:49:22.247Z,5.43
2017-10-30T10:51:49.771Z,4.10
2017-10-30T10:54:17.347Z,3.73
2017-10-30T10:56:45.871Z,4.33
2017-10-30T10:59:14.500Z,5.03
2017-10-30T11:01:42.047Z,3.57
2017-10-30T11:04:10.391Z,3.77
2017-10-30T11:06:38.691Z,3.70
2017-10-30T11:09:06.190Z,4.00
2017-10-30T11:11:33.669Z,4.10
2017-10-30T11:14:01.969Z,4.40
2017-10-30T11:16:31.082Z,3.80
2017-10-30T11:18:58.687Z,4.03
2017-10-30T11:21:27.084Z,4.73
2017-10-30T11:23:54.611Z,3.77
2017-10-30T11:26:22.138Z,4.37
2017-10-30T11:28:50.453Z,4.00
2017-10-30T11:31:18.042Z,3.93
2017-10-30T11:33:45.529Z,4.93
2017-10-30T11:36:13.057Z,4.90
2017-10-30T11:38:41.449Z,4.17
2017-10-30T11:41:09.713Z,4.10
2017-10-30T11:43:37.963Z,4.57
2017-10-30T11:46:06.251Z,4.90
2017-10-30T11:48:33.716Z,5.23
2017-10-30T11:51:01.265Z,4.23
2017-10-30T11:53:28.777Z,4.43
2017-10-30T11:55:57.027Z,4.13
2017-10-30T11:58:24.639Z,4.47
2017-10-30T12:00:52.876Z,3.53
2017-10-30T12:03:21.142Z,4.30
2017-10-30T12:05:49.370Z,4.03
2017-10-30T12:08:16.914Z,4.47
2017-10-30T12:10:44.467Z,4.00
2017-10-30T12:13:12.729Z,3.93
2017-10-30T12:15:41.103Z,4.30
2017-10-30T12:18:08.697Z,4.60
2017-10-30T12:20:36.164Z,4.10
2017-10-30T12:23:03.672Z,4.53
2017-10-30T12:25:31.159Z,4.03
2017-10-30T12:27:58.678Z,5.77
2017-10-30T12:30:26.178Z,3.93
2017-10-30T12:32:53.885Z,4.80
2017-10-30T12:35:22.138Z,3.80
2017-10-30T12:37:49.835Z,5.60
2017-10-30T12:40:17.428Z,4.63
2017-10-30T12:42:44.909Z,4.83
2017-10-30T12:45:12.489Z,4.70
2017-10-30T12:47:40.042Z,4.93
2017-10-30T12:50:07.538Z,4.50
2017-10-30T12:52:35.211Z,4.03
2017-10-30T12:55:02.719Z,4.73
2017-10-30T12:57:30.413Z,4.60
2017-10-30T12:59:57.947Z,3.77
2017-10-30T13:02:25.452Z,5.63
2017-10-30T13:04:52.929Z,3.80
2017-10-30T13:07:21.196Z,5.30
2017-10-30T13:09:48.665Z,4.13
2017-10-30T13:12:17.069Z,4.50
2017-10-30T13:14:44.548Z,4.33
2017-10-30T13:17:12.064Z,5.20
2017-10-30T13:19:39.557Z,3.60
2017-10-30T13:22:07.797Z,4.30
2017-10-30T13:24:35.312Z,4.27
2017-10-30T13:27:03.565Z,4.80
2017-10-30T13:29:31.055Z,4.00
2017-10-30T13:31:58.536Z,4.80
2017-10-30T13:34:26.013Z,4.30
2017-10-30T13:36:54.255Z,4.77
2017-10-30T13:39:21.727Z,4.30
2017-10-30T13:41:49.204Z,4.10
2017-10-30T13:44:16.688Z,4.50
2017-10-30T13:46:44.175Z,4.00
2017-10-30T13:49:11.761Z,3.67
2017-10-30T13:51:39.236Z,4.87
2017-10-30T13:54:06.706Z,4.47
2017-10-30T13:56:34.171Z,4.87
2017-10-30T13:59:01.847Z,4.30
2017-10-30T14:01:30.213Z,5.50
2017-10-30T14:03:57.876Z,4.10
2017-10-30T14:06:25.348Z,4.20
2017-10-30T14:08:52.972Z,3.90
2017-10-30T14:11:20.455Z,4.40
2017-10-30T14:13:47.926Z,3.80
2017-10-30T14:16:15.426Z,3.87
2017-10-30T14:18:42.913Z,5.03
2017-10-30T14:21:10.423Z,4.63
2017-10-30T14:23:37.889Z,4.50
2017-10-30T14:26:05.422Z,4.53
2017-10-30T14:28:33.695Z,4.30
2017-10-30T14:31:01.175Z,3.90
2017-10-30T14:33:28.767Z,5.03
2017-10-30T14:35:57.009Z,5.30
2017-10-30T14:38:24.516Z,4.43
2017-10-30T14:40:51.979Z,5.20
2017-10-30T14:43:19.461Z,4.40
2017-10-30T14:45:46.932Z,4.30
2017-10-30T14:48:14.456Z,4.20
2017-10-30T14:50:41.964Z,4.50
2017-10-30T14:53:09.425Z,4.27
2017-10-30T14:55:36.935Z,4.43
2017-10-30T14:58:05.172Z,4.80
2017-10-30T15:00:32.786Z,4.30
2017-10-30T15:03:00.320Z,4.80
2017-10-30T15:05:28.747Z,4.67
2017-10-30T15:07:56.237Z,4.87
2017-10-30T15:10:23.724Z,4.77
2017-10-30T15:12:51.229Z,5.70
2017-10-30T15:15:18.811Z,4.73
2017-10-30T15:17:46.299Z,4.33
2017-10-30T15:20:13.886Z,5.37
2017-10-30T15:22:41.468Z,7.07
2017-10-30T15:25:08.981Z,5.47
2017-10-30T15:27:36.587Z,4.73
2017-10-30T15:30:04.068Z,4.87
2017-10-30T15:32:32.309Z,5.03
2017-10-30T15:35:00.582Z,4.50
2017-10-30T15:37:28.454Z,4.50
2017-10-30T15:39:56.037Z,4.80
2017-10-30T15:42:24.346Z,5.20
2017-10-30T15:44:51.846Z,4.77
2017-10-30T15:47:20.098Z,5.30
2017-10-30T15:49:48.486Z,4.80
2017-10-30T15:52:16.890Z,4.73
2017-10-30T15:54:44.503Z,5.07
2017-10-30T15:57:14.139Z,6.20
2017-10-30T15:59:41.625Z,4.50
2017-10-30T16:02:11.020Z,4.90
2017-10-30T16:04:38.580Z,4.67
2017-10-30T16:07:12.390Z,5.10
2017-10-30T16:09:39.903Z,5.73
2017-10-30T16:12:07.493Z,5.20
2017-10-30T16:14:39.204Z,6.10
2017-10-30T16:17:06.713Z,5.77
2017-10-30T16:19:34.226Z,4.80
2017-10-30T16:22:01.723Z,4.90
2017-10-30T16:24:31.236Z,5.27
2017-10-30T16:26:58.739Z,5.40
2017-10-30T16:29:26.274Z,5.30
2017-10-30T16:31:54.024Z,5.63
2017-10-30T16:34:21.508Z,5.87
2017-10-30T16:36:50.138Z,4.80
2017-10-30T16:39:18.624Z,6.53
2017-10-30T16:41:47.111Z,5.47
2017-10-30T16:44:18.434Z,5.27
2017-10-30T16:46:46.757Z,5.23
2017-10-30T16:49:15.390Z,6.23
2017-10-30T16:51:42.924Z,5.70
2017-10-30T16:54:12.539Z,6.23
2017-10-30T16:56:40.060Z,5.80
2017-10-30T16:59:08.545Z,6.20
2017-10-30T17:01:36.602Z,5.80
2017-10-30T17:04:04.199Z,6.20
2017-10-30T17:06:31.677Z,6.70
2017-10-30T17:08:59.154Z,6.10
2017-10-30T17:11:26.660Z,6.10
2017-10-30T17:13:54.160Z,5.63
2017-10-30T17:16:21.752Z,6.20
2017-10-30T17:24:24.112Z,6.67
2017-10-30T17:26:51.953Z,5.57
2017-10-30T17:29:19.507Z,6.33
2017-10-30T17:31:46.980Z,6.57
2017-10-30T17:34:14.672Z,7.30
2017-10-30T17:36:44.782Z,7.23
2017-10-30T17:39:13.253Z,6.87
2017-10-30T17:41:40.731Z,6.87
2017-10-30T17:44:08.413Z,7.13
2017-10-30T17:46:36.045Z,7.17
2017-10-30T17:49:03.551Z,7.83
2017-10-30T17:51:32.140Z,6.73
2017-10-30T17:53:59.847Z,7.03
2017-10-30T17:56:27.504Z,6.77
2017-10-30T17:58:55.777Z,6.13
2017-10-30T18:01:23.305Z,6.57
2017-10-30T18:03:50.845Z,6.60
2017-10-30T18:06:19.624Z,6.07
2017-10-30T18:08:47.239Z,6.87
2017-10-30T18:11:14.861Z,6.93
2017-10-30T18:13:42.338Z,6.17
2017-10-30T18:16:11.087Z,6.57
2017-10-30T18:18:38.568Z,6.40
2017-10-30T18:21:06.263Z,6.20
2017-10-30T18:23:33.808Z,8.27
2017-10-30T18:26:01.318Z,7.40
2017-10-30T18:28:28.953Z,7.13
2017-10-30T18:31:02.459Z,7.00
2017-10-30T18:33:34.887Z,7.57
2017-10-30T18:36:02.521Z,7.30
2017-10-30T18:38:30.093Z,7.43
2017-10-30T18:40:57.709Z,7.30
2017-10-30T18:43:25.605Z,8.07
2017-10-30T18:45:56.142Z,7.60
2017-10-30T18:48:23.704Z,9.27
2017-10-30T18:50:54.135Z,8.20
2017-10-30T18:53:21.634Z,8.63
2017-10-30T18:55:49.867Z,6.90
2017-10-30T18:58:17.356Z,8.00
2017-10-30T19:00:46.488Z,7.30
2017-10-30T19:03:14.115Z,6.57
2017-10-30T19:05:43.460Z,7.20
2017-10-30T19:08:11.034Z,6.50
2017-10-30T19:10:39.268Z,6.97
2017-10-30T19:13:06.944Z,7.43
2017-10-30T19:15:34.461Z,7.07
2017-10-30T19:18:01.976Z,7.60
2017-10-30T19:20:31.057Z,7.20
2017-10-30T19:22:58.645Z,7.13
2017-10-30T19:25:26.144Z,8.60
2017-10-30T19:27:54.703Z,7.50
2017-10-30T19:30:22.219Z,7.70
2017-10-30T19:32:50.867Z,7.83
2017-10-30T19:35:19.155Z,8.10
2017-10-30T19:37:46.698Z,8.70
2017-10-30T19:40:14.975Z,8.57
2017-10-30T19:42:42.485Z,8.63
2017-10-30T19:45:09.969Z,8.50
2017-10-30T19:47:38.503Z,8.43
2017-10-30T19:50:06.064Z,9.43
2017-10-30T19:52:33.589Z,7.63
2017-10-30T19:55:01.837Z,8.10
2017-10-30T19:57:29.306Z,9.30
2017-10-30T19:59:57.529Z,8.60
2017-10-30T20:02:25.028Z,8.77
2017-10-30T20:04:52.501Z,8.07
2017-10-30T20:07:27.442Z,9.70
2017-10-30T20:10:01.544Z,9.30
2017-10-30T20:12:29.077Z,9.27
2017-10-30T20:14:56.549Z,9.47
2017-10-30T20:17:24.826Z,8.60
2017-10-30T20:19:54.065Z,9.87
2017-10-30T20:22:21.538Z,10.67
2017-10-30T20:24:49.023Z,8.80
2017-10-30T20:27:16.487Z,10.23
2017-10-30T20:29:44.726Z,10.70
2017-10-30T20:32:12.223Z,9.70
2017-10-30T20:34:40.439Z,8.70
2017-10-30T20:37:07.913Z,9.23
2017-10-30T20:39:35.499Z,9.77
2017-10-30T20:42:02.964Z,9.50
2017-10-30T20:44:31.182Z,8.77
2017-10-30T20:46:58.697Z,9.93
2017-10-30T20:49:26.944Z,8.67
2017-10-30T20:51:54.463Z,8.97
2017-10-30T20:54:21.942Z,8.50
2017-10-30T20:56:49.397Z,9.20
2017-10-30T20:59:16.858Z,8.00
2017-10-30T21:01:44.333Z,9.63
2017-10-30T21:04:11.828Z,8.17
2017-10-30T21:06:39.322Z,8.70
2017-10-30T21:09:06.787Z,7.67
2017-10-30T21:11:34.270Z,8.73
2017-10-30T21:14:01.747Z,8.83
2017-10-30T21:16:30.007Z,8.43
2017-10-30T21:18:58.241Z,9.37
2017-10-30T21:21:26.039Z,9.33
2017-10-30T21:23:54.282Z,9.37
2017-10-30T21:26:21.738Z,8.57
2017-10-30T21:28:49.269Z,8.50
2017-10-30T21:31:17.071Z,8.73
2017-10-30T21:33:44.547Z,8.80
2017-10-30T21:36:12.024Z,9.00
2017-10-30T21:38:40.334Z,9.20
2017-10-30T21:41:07.785Z,8.57
2017-10-30T21:43:35.276Z,8.47
2017-10-30T21:46:03.235Z,9.50
2017-10-30T21:48:30.765Z,9.00
2017-10-30T21:50:58.338Z,8.63
2017-10-30T21:53:27.059Z,9.40
2017-10-30T21:55:58.254Z,9.37
2017-10-30T21:58:25.819Z,10.07
2017-10-30T22:00:53.269Z,10.13
2017-10-30T22:03:20.790Z,9.70
2017-10-30T22:05:49.130Z,10.40
2017-10-30T22:08:16.601Z,8.53
2017-10-30T22:10:44.092Z,10.17
2017-10-30T22:13:12.400Z,9.27
2017-10-30T22:15:40.639Z,10.57
2017-10-30T22:18:10.020Z,9.60
2017-10-30T22:20:39.531Z,8.53
2017-10-30T22:23:07.855Z,9.10
2017-10-30T22:25:35.642Z,9.30
2017-10-30T22:28:03.125Z,9.20
2017-10-30T22:30:31.347Z,9.77
2017-10-30T22:32:58.878Z,9.87
2017-10-30T22:35:26.325Z,10.00
2017-10-30T22:37:53.910Z,10.20
2017-10-30T22:40:21.505Z,8.17
2017-10-30T22:42:48.985Z,9.20
2017-10-30T22:45:17.222Z,7.97
2017-10-30T22:47:45.245Z,9.60
2017-10-30T22:50:12.767Z,9.30
2017-10-30T22:52:40.403Z,9.30
2017-10-30T22:55:08.092Z,8.50
2017-10-30T22:57:35.541Z,8.63
2017-10-30T23:00:03.025Z,8.60
2017-10-30T23:02:31.371Z,9.23
2017-10-30T23:04:58.892Z,8.67
2017-10-30T23:07:26.355Z,8.40
2017-10-30T23:09:53.906Z,10.03
2017-10-30T23:12:21.387Z,8.63
2017-10-30T23:14:48.871Z,9.23
2017-10-30T23:17:16.434Z,10.10
2017-10-30T23:19:44.657Z,8.97
2017-10-30T23:22:12.236Z,10.10
2017-10-30T23:24:39.709Z,9.70
2017-10-30T23:27:07.177Z,9.80
2017-10-30T23:29:35.608Z,9.70
2017-10-30T23:32:03.077Z,9.40
2017-10-30T23:34:30.556Z,8.60
2017-10-30T23:36:58.142Z,9.80
2017-10-30T23:39:26.364Z,8.77
2017-10-30T23:41:53.844Z,9.60
2017-10-30T23:44:21.364Z,9.50
2017-10-30T23:46:49.910Z,9.77
2017-10-30T23:49:18.265Z,8.77
2017-10-30T23:51:45.720Z,9.77
2017-10-30T23:54:28.978Z,8.97
2017-10-30T23:56:56.432Z,9.30
2017-10-30T23:59:24.970Z,9.37
